sensor_id;sensor_type;location;lat;lon;timestamp;pressure;altitude;pressure_sealevel;temperature;humidity
45071;BME280;30836;48.906;9.140;2023-06-14T00:00:10;981.04;;;24.59;29.10
45071;BME280;30836;48.906;9.140;2023-06-14T00:01:11;981.04;;;24.56;29.09
45071;BME280;30836;48.906;9.140;2023-06-14T00:02:11;981.08;;;24.54;29.25
45071;BME280;30836;48.906;9.140;2023-06-14T00:03:12;981.04;;;24.50;29.27
45071;BME280;30836;48.906;9.140;2023-06-14T00:04:12;981.08;;;24.47;29.25
45071;BME280;30836;48.906;9.140;2023-06-14T00:05:13;981.06;;;24.43;29.25
45071;BME280;30836;48.906;9.140;2023-06-14T00:06:14;981.10;;;24.40;29.27
45071;BME280;30836;48.906;9.140;2023-06-14T00:07:14;981.10;;;24.37;29.37
45071;BME280;30836;48.906;9.140;2023-06-14T00:08:14;981.14;;;24.35;29.36
45071;BME280;30836;48.906;9.140;2023-06-14T00:09:15;981.12;;;24.32;29.36
45071;BME280;30836;48.906;9.140;2023-06-14T00:10:15;981.14;;;24.31;29.37
45071;BME280;30836;48.906;9.140;2023-06-14T00:11:16;981.12;;;24.30;29.53
45071;BME280;30836;48.906;9.140;2023-06-14T00:12:16;981.12;;;24.28;29.66
45071;BME280;30836;48.906;9.140;2023-06-14T00:13:17;981.10;;;24.27;29.60
45071;BME280;30836;48.906;9.140;2023-06-14T00:14:17;981.12;;;24.26;29.72
45071;BME280;30836;48.906;9.140;2023-06-14T00:15:17;981.10;;;24.24;29.77
45071;BME280;30836;48.906;9.140;2023-06-14T00:16:18;981.10;;;24.22;29.79
45071;BME280;30836;48.906;9.140;2023-06-14T00:17:18;981.10;;;24.20;29.95
45071;BME280;30836;48.906;9.140;2023-06-14T00:18:19;981.08;;;24.17;29.90
45071;BME280;30836;48.906;9.140;2023-06-14T00:19:19;981.08;;;24.14;29.98
45071;BME280;30836;48.906;9.140;2023-06-14T00:20:20;981.08;;;24.12;29.94
45071;BME280;30836;48.906;9.140;2023-06-14T00:21:21;981.06;;;24.11;30.00
45071;BME280;30836;48.906;9.140;2023-06-14T00:22:21;981.08;;;24.10;30.09
45071;BME280;30836;48.906;9.140;2023-06-14T00:23:21;981.06;;;24.08;30.08
45071;BME280;30836;48.906;9.140;2023-06-14T00:24:22;981.06;;;24.07;30.05
45071;BME280;30836;48.906;9.140;2023-06-14T00:25:23;981.08;;;24.06;30.09
45071;BME280;30836;48.906;9.140;2023-06-14T00:26:24;981.08;;;24.07;30.07
45071;BME280;30836;48.906;9.140;2023-06-14T00:27:24;981.08;;;24.15;30.01
45071;BME280;30836;48.906;9.140;2023-06-14T00:28:24;981.10;;;24.28;29.73
45071;BME280;30836;48.906;9.140;2023-06-14T00:29:25;981.10;;;24.42;29.51
45071;BME280;30836;48.906;9.140;2023-06-14T00:30:25;981.12;;;24.53;29.37
45071;BME280;30836;48.906;9.140;2023-06-14T00:31:26;981.12;;;24.62;29.32
45071;BME280;30836;48.906;9.140;2023-06-14T00:32:26;981.14;;;24.69;29.30
45071;BME280;30836;48.906;9.140;2023-06-14T00:33:27;981.12;;;24.75;29.23
45071;BME280;30836;48.906;9.140;2023-06-14T00:34:27;981.10;;;24.80;29.12
45071;BME280;30836;48.906;9.140;2023-06-14T00:35:27;981.12;;;24.84;29.06
45071;BME280;30836;48.906;9.140;2023-06-14T00:36:28;981.10;;;24.88;29.24
45071;BME280;30836;48.906;9.140;2023-06-14T00:37:28;981.10;;;24.90;29.10
45071;BME280;30836;48.906;9.140;2023-06-14T00:38:29;981.10;;;24.92;29.09
45071;BME280;30836;48.906;9.140;2023-06-14T00:39:29;981.10;;;24.94;29.00
45071;BME280;30836;48.906;9.140;2023-06-14T00:40:29;981.12;;;24.95;29.09
45071;BME280;30836;48.906;9.140;2023-06-14T00:41:30;981.12;;;24.96;29.05
45071;BME280;30836;48.906;9.140;2023-06-14T00:42:31;981.12;;;24.98;28.95
45071;BME280;30836;48.906;9.140;2023-06-14T00:43:31;981.16;;;24.99;29.16
45071;BME280;30836;48.906;9.140;2023-06-14T00:44:32;981.12;;;25.00;29.35
45071;BME280;30836;48.906;9.140;2023-06-14T00:45:32;981.12;;;24.93;29.64
45071;BME280;30836;48.906;9.140;2023-06-14T00:46:32;981.14;;;24.77;30.04
45071;BME280;30836;48.906;9.140;2023-06-14T00:47:33;981.12;;;24.59;30.09
45071;BME280;30836;48.906;9.140;2023-06-14T00:48:36;981.14;;;24.44;30.11
45071;BME280;30836;48.906;9.140;2023-06-14T00:49:38;981.12;;;24.31;30.34
45071;BME280;30836;48.906;9.140;2023-06-14T00:50:38;981.12;;;24.19;30.44
45071;BME280;30836;48.906;9.140;2023-06-14T00:51:39;981.14;;;24.06;30.53
45071;BME280;30836;48.906;9.140;2023-06-14T00:52:40;981.12;;;23.94;30.86
45071;BME280;30836;48.906;9.140;2023-06-14T00:53:40;981.16;;;23.82;31.20
45071;BME280;30836;48.906;9.140;2023-06-14T00:54:41;981.14;;;23.72;31.22
45071;BME280;30836;48.906;9.140;2023-06-14T00:55:41;981.14;;;23.63;31.22
45071;BME280;30836;48.906;9.140;2023-06-14T00:56:42;981.14;;;23.57;31.34
45071;BME280;30836;48.906;9.140;2023-06-14T00:56:53;981.16;;;23.47;31.37
45071;BME280;30836;48.906;9.140;2023-06-14T00:57:54;981.14;;;23.48;31.38
45071;BME280;30836;48.906;9.140;2023-06-14T00:58:56;981.10;;;23.47;31.27
45071;BME280;30836;48.906;9.140;2023-06-14T00:59:57;981.10;;;23.46;30.95
45071;BME280;30836;48.906;9.140;2023-06-14T01:00:57;981.08;;;23.47;30.98
45071;BME280;30836;48.906;9.140;2023-06-14T01:01:58;981.10;;;23.47;31.01
45071;BME280;30836;48.906;9.140;2023-06-14T01:02:58;981.08;;;23.46;31.05
45071;BME280;30836;48.906;9.140;2023-06-14T01:03:59;981.10;;;23.45;31.06
45071;BME280;30836;48.906;9.140;2023-06-14T01:05:00;981.12;;;23.45;31.17
45071;BME280;30836;48.906;9.140;2023-06-14T01:08:26;981.14;;;23.43;31.41
45071;BME280;30836;48.906;9.140;2023-06-14T01:10:50;981.14;;;23.40;31.63
45071;BME280;30836;48.906;9.140;2023-06-14T01:14:10;981.18;;;23.33;31.71
45071;BME280;30836;48.906;9.140;2023-06-14T01:15:13;981.18;;;23.31;31.75
45071;BME280;30836;48.906;9.140;2023-06-14T01:16:14;981.18;;;23.27;31.68
45071;BME280;30836;48.906;9.140;2023-06-14T01:17:15;981.18;;;23.24;31.65
45071;BME280;30836;48.906;9.140;2023-06-14T01:18:16;981.18;;;23.20;31.74
45071;BME280;30836;48.906;9.140;2023-06-14T01:19:17;981.18;;;23.17;31.76
45071;BME280;30836;48.906;9.140;2023-06-14T01:20:19;981.20;;;23.14;31.85
45071;BME280;30836;48.906;9.140;2023-06-14T01:21:22;981.18;;;23.12;32.06
45071;BME280;30836;48.906;9.140;2023-06-14T01:22:25;981.20;;;23.11;32.18
45071;BME280;30836;48.906;9.140;2023-06-14T01:23:26;981.22;;;23.08;32.21
45071;BME280;30836;48.906;9.140;2023-06-14T01:24:26;981.20;;;23.05;32.39
45071;BME280;30836;48.906;9.140;2023-06-14T01:25:27;981.22;;;23.02;32.39
45071;BME280;30836;48.906;9.140;2023-06-14T01:26:28;981.24;;;23.00;32.47
45071;BME280;30836;48.906;9.140;2023-06-14T01:27:28;981.24;;;22.98;32.39
45071;BME280;30836;48.906;9.140;2023-06-14T01:28:29;981.24;;;22.96;32.34
45071;BME280;30836;48.906;9.140;2023-06-14T01:29:30;981.24;;;22.97;32.23
45071;BME280;30836;48.906;9.140;2023-06-14T01:30:31;981.22;;;23.06;32.01
45071;BME280;30836;48.906;9.140;2023-06-14T01:31:32;981.22;;;23.17;32.05
45071;BME280;30836;48.906;9.140;2023-06-14T01:31:43;981.18;;;23.29;32.07
45071;BME280;30836;48.906;9.140;2023-06-14T01:31:53;981.22;;;23.28;32.09
45071;BME280;30836;48.906;9.140;2023-06-14T01:32:54;981.22;;;23.30;31.83
45071;BME280;30836;48.906;9.140;2023-06-14T01:33:57;981.20;;;23.28;31.95
45071;BME280;30836;48.906;9.140;2023-06-14T01:34:57;981.20;;;23.19;32.07
45071;BME280;30836;48.906;9.140;2023-06-14T01:35:57;981.20;;;23.09;32.22
45071;BME280;30836;48.906;9.140;2023-06-14T01:37:00;981.24;;;23.01;32.23
45071;BME280;30836;48.906;9.140;2023-06-14T01:37:11;981.24;;;22.90;32.20
45071;BME280;30836;48.906;9.140;2023-06-14T01:38:14;981.22;;;22.91;32.30
45071;BME280;30836;48.906;9.140;2023-06-14T01:39:15;981.22;;;22.89;32.48
45071;BME280;30836;48.906;9.140;2023-06-14T01:40:16;981.24;;;22.85;32.61
45071;BME280;30836;48.906;9.140;2023-06-14T01:41:18;981.20;;;22.83;32.63
45071;BME280;30836;48.906;9.140;2023-06-14T01:42:21;981.24;;;22.88;32.29
45071;BME280;30836;48.906;9.140;2023-06-14T01:43:22;981.24;;;23.00;31.97
45071;BME280;30836;48.906;9.140;2023-06-14T01:44:24;981.26;;;23.13;31.80
45071;BME280;30836;48.906;9.140;2023-06-14T01:45:26;981.24;;;23.25;31.70
45071;BME280;30836;48.906;9.140;2023-06-14T01:46:26;981.24;;;23.37;31.52
45071;BME280;30836;48.906;9.140;2023-06-14T01:47:27;981.26;;;23.46;31.42
45071;BME280;30836;48.906;9.140;2023-06-14T01:48:27;981.24;;;23.54;31.51
45071;BME280;30836;48.906;9.140;2023-06-14T01:49:28;981.28;;;23.59;31.51
45071;BME280;30836;48.906;9.140;2023-06-14T01:50:29;981.26;;;23.63;31.39
45071;BME280;30836;48.906;9.140;2023-06-14T01:51:31;981.28;;;23.65;31.28
45071;BME280;30836;48.906;9.140;2023-06-14T01:52:31;981.28;;;23.67;31.23
45071;BME280;30836;48.906;9.140;2023-06-14T01:53:31;981.30;;;23.68;31.08
45071;BME280;30836;48.906;9.140;2023-06-14T01:54:32;981.30;;;23.70;31.01
45071;BME280;30836;48.906;9.140;2023-06-14T01:55:32;981.33;;;23.71;30.99
45071;BME280;30836;48.906;9.140;2023-06-14T01:56:33;981.33;;;23.71;30.95
45071;BME280;30836;48.906;9.140;2023-06-14T01:57:33;981.33;;;23.73;30.80
45071;BME280;30836;48.906;9.140;2023-06-14T01:58:34;981.31;;;23.74;30.82
45071;BME280;30836;48.906;9.140;2023-06-14T01:59:34;981.31;;;23.73;30.79
45071;BME280;30836;48.906;9.140;2023-06-14T02:00:35;981.33;;;23.72;30.82
45071;BME280;30836;48.906;9.140;2023-06-14T02:01:35;981.33;;;23.70;31.09
45071;BME280;30836;48.906;9.140;2023-06-14T02:02:35;981.33;;;23.67;31.14
45071;BME280;30836;48.906;9.140;2023-06-14T02:03:36;981.35;;;23.66;31.14
45071;BME280;30836;48.906;9.140;2023-06-14T02:04:36;981.33;;;23.65;31.14
45071;BME280;30836;48.906;9.140;2023-06-14T02:05:37;981.33;;;23.64;31.21
45071;BME280;30836;48.906;9.140;2023-06-14T02:06:37;981.31;;;23.62;31.33
45071;BME280;30836;48.906;9.140;2023-06-14T02:07:38;981.33;;;23.59;31.31
45071;BME280;30836;48.906;9.140;2023-06-14T02:08:38;981.35;;;23.57;31.32
45071;BME280;30836;48.906;9.140;2023-06-14T02:09:39;981.33;;;23.55;31.29
45071;BME280;30836;48.906;9.140;2023-06-14T02:10:42;981.33;;;23.53;31.41
45071;BME280;30836;48.906;9.140;2023-06-14T02:11:43;981.35;;;23.50;31.43
45071;BME280;30836;48.906;9.140;2023-06-14T02:12:43;981.30;;;23.47;31.37
45071;BME280;30836;48.906;9.140;2023-06-14T02:13:44;981.30;;;23.45;31.54
45071;BME280;30836;48.906;9.140;2023-06-14T02:14:44;981.30;;;23.42;31.55
45071;BME280;30836;48.906;9.140;2023-06-14T02:15:45;981.31;;;23.39;31.52
45071;BME280;30836;48.906;9.140;2023-06-14T02:16:45;981.30;;;23.36;31.57
45071;BME280;30836;48.906;9.140;2023-06-14T02:17:46;981.26;;;23.34;31.65
45071;BME280;30836;48.906;9.140;2023-06-14T02:18:46;981.24;;;23.32;31.68
45071;BME280;30836;48.906;9.140;2023-06-14T02:19:47;981.24;;;23.30;31.81
45071;BME280;30836;48.906;9.140;2023-06-14T02:20:47;981.24;;;23.28;31.78
45071;BME280;30836;48.906;9.140;2023-06-14T02:21:48;981.26;;;23.25;31.93
45071;BME280;30836;48.906;9.140;2023-06-14T02:22:48;981.26;;;23.23;31.84
45071;BME280;30836;48.906;9.140;2023-06-14T02:23:49;981.28;;;23.23;31.91
45071;BME280;30836;48.906;9.140;2023-06-14T02:24:49;981.26;;;23.21;32.00
45071;BME280;30836;48.906;9.140;2023-06-14T02:25:49;981.28;;;23.19;31.98
45071;BME280;30836;48.906;9.140;2023-06-14T02:26:50;981.30;;;23.17;31.99
45071;BME280;30836;48.906;9.140;2023-06-14T02:27:50;981.31;;;23.15;32.13
45071;BME280;30836;48.906;9.140;2023-06-14T02:28:51;981.33;;;23.12;32.25
45071;BME280;30836;48.906;9.140;2023-06-14T02:29:51;981.33;;;23.09;32.34
45071;BME280;30836;48.906;9.140;2023-06-14T02:30:52;981.33;;;23.04;32.49
45071;BME280;30836;48.906;9.140;2023-06-14T02:31:52;981.35;;;22.98;32.63
45071;BME280;30836;48.906;9.140;2023-06-14T02:32:52;981.35;;;22.91;32.81
45071;BME280;30836;48.906;9.140;2023-06-14T02:33:53;981.37;;;22.84;32.95
45071;BME280;30836;48.906;9.140;2023-06-14T02:34:53;981.35;;;22.77;33.03
45071;BME280;30836;48.906;9.140;2023-06-14T02:35:54;981.35;;;22.71;33.20
45071;BME280;30836;48.906;9.140;2023-06-14T02:36:55;981.37;;;22.63;33.32
45071;BME280;30836;48.906;9.140;2023-06-14T02:37:55;981.35;;;22.57;33.40
45071;BME280;30836;48.906;9.140;2023-06-14T02:38:56;981.33;;;22.54;33.33
45071;BME280;30836;48.906;9.140;2023-06-14T02:39:57;981.31;;;22.52;33.48
45071;BME280;30836;48.906;9.140;2023-06-14T02:40:57;981.31;;;22.50;33.37
45071;BME280;30836;48.906;9.140;2023-06-14T02:41:57;981.33;;;22.51;33.30
45071;BME280;30836;48.906;9.140;2023-06-14T02:42:58;981.37;;;22.53;33.20
45071;BME280;30836;48.906;9.140;2023-06-14T02:43:58;981.35;;;22.53;33.17
45071;BME280;30836;48.906;9.140;2023-06-14T02:44:59;981.37;;;22.53;33.13
45071;BME280;30836;48.906;9.140;2023-06-14T02:45:59;981.35;;;22.53;33.19
45071;BME280;30836;48.906;9.140;2023-06-14T02:46:59;981.37;;;22.54;33.18
45071;BME280;30836;48.906;9.140;2023-06-14T02:48:00;981.35;;;22.56;33.20
45071;BME280;30836;48.906;9.140;2023-06-14T02:49:00;981.35;;;22.58;33.10
45071;BME280;30836;48.906;9.140;2023-06-14T02:50:01;981.35;;;22.61;33.04
45071;BME280;30836;48.906;9.140;2023-06-14T02:51:01;981.33;;;22.63;33.09
45071;BME280;30836;48.906;9.140;2023-06-14T02:52:02;981.35;;;22.64;33.15
45071;BME280;30836;48.906;9.140;2023-06-14T02:53:03;981.33;;;22.66;33.11
45071;BME280;30836;48.906;9.140;2023-06-14T02:54:03;981.33;;;22.68;33.12
45071;BME280;30836;48.906;9.140;2023-06-14T02:55:04;981.33;;;22.70;33.16
45071;BME280;30836;48.906;9.140;2023-06-14T02:56:05;981.33;;;22.72;33.22
45071;BME280;30836;48.906;9.140;2023-06-14T02:57:05;981.31;;;22.74;33.27
45071;BME280;30836;48.906;9.140;2023-06-14T02:58:05;981.31;;;22.74;33.41
45071;BME280;30836;48.906;9.140;2023-06-14T02:59:06;981.33;;;22.74;33.37
45071;BME280;30836;48.906;9.140;2023-06-14T03:00:07;981.33;;;22.71;33.46
45071;BME280;30836;48.906;9.140;2023-06-14T03:01:08;981.33;;;22.63;33.79
45071;BME280;30836;48.906;9.140;2023-06-14T03:02:08;981.35;;;22.57;33.75
45071;BME280;30836;48.906;9.140;2023-06-14T03:03:09;981.35;;;22.56;33.65
45071;BME280;30836;48.906;9.140;2023-06-14T03:04:09;981.37;;;22.59;33.67
45071;BME280;30836;48.906;9.140;2023-06-14T03:05:10;981.35;;;22.59;33.64
45071;BME280;30836;48.906;9.140;2023-06-14T03:06:11;981.37;;;22.59;33.69
45071;BME280;30836;48.906;9.140;2023-06-14T03:07:11;981.37;;;22.63;33.46
45071;BME280;30836;48.906;9.140;2023-06-14T03:08:12;981.37;;;22.71;33.28
45071;BME280;30836;48.906;9.140;2023-06-14T03:09:12;981.39;;;22.77;33.25
45071;BME280;30836;48.906;9.140;2023-06-14T03:10:13;981.37;;;22.84;33.04
45071;BME280;30836;48.906;9.140;2023-06-14T03:11:13;981.39;;;22.91;32.90
45071;BME280;30836;48.906;9.140;2023-06-14T03:12:14;981.39;;;22.96;32.75
45071;BME280;30836;48.906;9.140;2023-06-14T03:13:14;981.41;;;23.02;32.59
45071;BME280;30836;48.906;9.140;2023-06-14T03:14:15;981.41;;;23.11;32.42
45071;BME280;30836;48.906;9.140;2023-06-14T03:15:16;981.45;;;23.18;32.33
45071;BME280;30836;48.906;9.140;2023-06-14T03:16:16;981.43;;;23.22;32.30
45071;BME280;30836;48.906;9.140;2023-06-14T03:17:17;981.43;;;23.30;32.09
45071;BME280;30836;48.906;9.140;2023-06-14T03:18:17;981.43;;;23.42;31.84
45071;BME280;30836;48.906;9.140;2023-06-14T03:19:18;981.43;;;23.51;31.75
45071;BME280;30836;48.906;9.140;2023-06-14T03:20:18;981.45;;;23.55;31.76
45071;BME280;30836;48.906;9.140;2023-06-14T03:21:19;981.45;;;23.61;31.65
45071;BME280;30836;48.906;9.140;2023-06-14T03:22:20;981.47;;;23.68;31.79
45071;BME280;30836;48.906;9.140;2023-06-14T03:23:20;981.45;;;23.71;31.67
45071;BME280;30836;48.906;9.140;2023-06-14T03:24:20;981.49;;;23.74;31.55
45071;BME280;30836;48.906;9.140;2023-06-14T03:25:21;981.47;;;23.77;31.51
45071;BME280;30836;48.906;9.140;2023-06-14T03:26:21;981.47;;;23.79;31.51
45071;BME280;30836;48.906;9.140;2023-06-14T03:27:22;981.47;;;23.78;31.61
45071;BME280;30836;48.906;9.140;2023-06-14T03:28:22;981.49;;;23.79;31.55
45071;BME280;30836;48.906;9.140;2023-06-14T03:29:23;981.47;;;23.81;31.58
45071;BME280;30836;48.906;9.140;2023-06-14T03:30:23;981.47;;;23.82;31.48
45071;BME280;30836;48.906;9.140;2023-06-14T03:31:24;981.51;;;23.85;31.40
45071;BME280;30836;48.906;9.140;2023-06-14T03:32:24;981.51;;;23.89;31.42
45071;BME280;30836;48.906;9.140;2023-06-14T03:33:25;981.51;;;23.94;31.65
45071;BME280;30836;48.906;9.140;2023-06-14T03:34:25;981.51;;;23.98;31.48
45071;BME280;30836;48.906;9.140;2023-06-14T03:35:28;981.51;;;23.99;31.38
45071;BME280;30836;48.906;9.140;2023-06-14T03:36:28;981.57;;;23.98;31.45
45071;BME280;30836;48.906;9.140;2023-06-14T03:37:29;981.57;;;23.92;31.58
45071;BME280;30836;48.906;9.140;2023-06-14T03:38:29;981.59;;;23.91;31.55
45071;BME280;30836;48.906;9.140;2023-06-14T03:39:30;981.57;;;23.92;31.51
45071;BME280;30836;48.906;9.140;2023-06-14T03:40:30;981.59;;;23.92;31.45
45071;BME280;30836;48.906;9.140;2023-06-14T03:41:31;981.59;;;23.92;31.39
45071;BME280;30836;48.906;9.140;2023-06-14T03:42:31;981.59;;;23.91;31.40
45071;BME280;30836;48.906;9.140;2023-06-14T03:43:31;981.57;;;23.88;31.44
45071;BME280;30836;48.906;9.140;2023-06-14T03:44:32;981.63;;;23.85;31.53
45071;BME280;30836;48.906;9.140;2023-06-14T03:45:32;981.61;;;23.79;31.68
45071;BME280;30836;48.906;9.140;2023-06-14T03:46:33;981.59;;;23.72;31.62
45071;BME280;30836;48.906;9.140;2023-06-14T03:47:33;981.59;;;23.70;31.63
45071;BME280;30836;48.906;9.140;2023-06-14T03:48:34;981.61;;;23.68;31.59
45071;BME280;30836;48.906;9.140;2023-06-14T03:49:35;981.63;;;23.66;31.64
45071;BME280;30836;48.906;9.140;2023-06-14T03:50:35;981.67;;;23.63;31.71
45071;BME280;30836;48.906;9.140;2023-06-14T03:51:36;981.67;;;23.60;31.75
45071;BME280;30836;48.906;9.140;2023-06-14T03:52:36;981.71;;;23.57;31.85
45071;BME280;30836;48.906;9.140;2023-06-14T03:53:36;981.73;;;23.54;31.82
45071;BME280;30836;48.906;9.140;2023-06-14T03:54:37;981.73;;;23.54;31.87
45071;BME280;30836;48.906;9.140;2023-06-14T03:55:37;981.75;;;23.53;31.93
45071;BME280;30836;48.906;9.140;2023-06-14T03:56:38;981.77;;;23.52;31.98
45071;BME280;30836;48.906;9.140;2023-06-14T03:57:38;981.79;;;23.49;32.15
45071;BME280;30836;48.906;9.140;2023-06-14T03:58:39;981.81;;;23.44;32.24
45071;BME280;30836;48.906;9.140;2023-06-14T03:59:39;981.81;;;23.39;32.24
45071;BME280;30836;48.906;9.140;2023-06-14T04:00:39;981.77;;;23.34;32.45
45071;BME280;30836;48.906;9.140;2023-06-14T04:01:40;981.79;;;23.29;32.46
45071;BME280;30836;48.906;9.140;2023-06-14T04:02:40;981.79;;;23.26;32.40
45071;BME280;30836;48.906;9.140;2023-06-14T04:03:41;981.82;;;23.26;32.36
45071;BME280;30836;48.906;9.140;2023-06-14T04:04:41;981.82;;;23.25;32.38
45071;BME280;30836;48.906;9.140;2023-06-14T04:05:42;981.82;;;23.23;32.38
45071;BME280;30836;48.906;9.140;2023-06-14T04:06:43;981.82;;;23.20;32.51
45071;BME280;30836;48.906;9.140;2023-06-14T04:07:43;981.86;;;23.15;32.53
45071;BME280;30836;48.906;9.140;2023-06-14T04:08:43;981.86;;;23.12;32.56
45071;BME280;30836;48.906;9.140;2023-06-14T04:09:44;981.90;;;23.12;32.56
45071;BME280;30836;48.906;9.140;2023-06-14T04:10:45;981.88;;;23.13;32.63
45071;BME280;30836;48.906;9.140;2023-06-14T04:11:45;981.88;;;23.12;32.61
45071;BME280;30836;48.906;9.140;2023-06-14T04:12:46;981.90;;;23.10;32.67
45071;BME280;30836;48.906;9.140;2023-06-14T04:13:46;981.90;;;23.08;32.63
45071;BME280;30836;48.906;9.140;2023-06-14T04:14:46;981.90;;;23.05;32.77
45071;BME280;30836;48.906;9.140;2023-06-14T04:15:47;981.90;;;23.01;32.89
45071;BME280;30836;48.906;9.140;2023-06-14T04:16:48;981.90;;;22.96;32.96
45071;BME280;30836;48.906;9.140;2023-06-14T04:17:49;981.92;;;22.92;33.12
45071;BME280;30836;48.906;9.140;2023-06-14T04:18:50;981.90;;;22.86;33.33
45071;BME280;30836;48.906;9.140;2023-06-14T04:19:50;981.92;;;22.77;33.67
45071;BME280;30836;48.906;9.140;2023-06-14T04:20:50;981.94;;;22.65;33.84
45071;BME280;30836;48.906;9.140;2023-06-14T04:21:51;981.96;;;22.50;34.22
45071;BME280;30836;48.906;9.140;2023-06-14T04:22:51;981.98;;;22.30;34.58
45071;BME280;30836;48.906;9.140;2023-06-14T04:23:52;982.02;;;22.14;34.72
45071;BME280;30836;48.906;9.140;2023-06-14T04:24:53;982.02;;;21.98;35.25
45071;BME280;30836;48.906;9.140;2023-06-14T04:25:53;982.02;;;21.80;35.48
45071;BME280;30836;48.906;9.140;2023-06-14T04:26:54;982.02;;;21.66;35.66
45071;BME280;30836;48.906;9.140;2023-06-14T04:27:54;982.02;;;21.56;35.75
45071;BME280;30836;48.906;9.140;2023-06-14T04:28:55;982.12;;;21.48;35.90
45071;BME280;30836;48.906;9.140;2023-06-14T04:29:56;982.04;;;21.38;36.04
45071;BME280;30836;48.906;9.140;2023-06-14T04:30:57;982.04;;;21.28;36.18
45071;BME280;30836;48.906;9.140;2023-06-14T04:31:58;982.12;;;21.20;36.24
45071;BME280;30836;48.906;9.140;2023-06-14T04:32:59;982.04;;;21.14;36.29
45071;BME280;30836;48.906;9.140;2023-06-14T04:33:59;982.12;;;21.09;36.44
45071;BME280;30836;48.906;9.140;2023-06-14T04:35:00;982.14;;;21.03;36.66
45071;BME280;30836;48.906;9.140;2023-06-14T04:36:00;982.14;;;20.99;36.81
45071;BME280;30836;48.906;9.140;2023-06-14T04:37:01;982.16;;;20.92;36.99
45071;BME280;30836;48.906;9.140;2023-06-14T04:38:01;982.12;;;20.85;37.02
45071;BME280;30836;48.906;9.140;2023-06-14T04:39:03;982.18;;;20.86;37.00
45071;BME280;30836;48.906;9.140;2023-06-14T04:40:04;982.18;;;20.91;36.85
45071;BME280;30836;48.906;9.140;2023-06-14T04:41:05;982.20;;;21.01;36.66
45071;BME280;30836;48.906;9.140;2023-06-14T04:42:05;982.24;;;21.12;36.52
45071;BME280;30836;48.906;9.140;2023-06-14T04:43:06;982.22;;;21.20;36.44
45071;BME280;30836;48.906;9.140;2023-06-14T04:44:06;982.20;;;21.25;36.42
45071;BME280;30836;48.906;9.140;2023-06-14T04:45:07;982.22;;;21.29;36.30
45071;BME280;30836;48.906;9.140;2023-06-14T04:46:08;982.24;;;21.37;36.17
45071;BME280;30836;48.906;9.140;2023-06-14T04:47:12;982.24;;;21.45;36.07
45071;BME280;30836;48.906;9.140;2023-06-14T04:48:13;982.24;;;21.52;35.96
45071;BME280;30836;48.906;9.140;2023-06-14T04:49:14;982.22;;;21.65;35.61
45071;BME280;30836;48.906;9.140;2023-06-14T04:50:15;982.20;;;21.76;35.55
45071;BME280;30836;48.906;9.140;2023-06-14T04:51:15;982.20;;;21.80;35.57
45071;BME280;30836;48.906;9.140;2023-06-14T04:52:16;982.26;;;21.82;35.59
45071;BME280;30836;48.906;9.140;2023-06-14T04:53:16;982.26;;;21.84;35.58
45071;BME280;30836;48.906;9.140;2023-06-14T04:54:17;982.28;;;21.87;35.53
45071;BME280;30836;48.906;9.140;2023-06-14T04:55:17;982.28;;;21.90;35.50
45071;BME280;30836;48.906;9.140;2023-06-14T04:56:18;982.34;;;21.94;35.43
45071;BME280;30836;48.906;9.140;2023-06-14T04:57:18;982.36;;;22.00;35.32
45071;BME280;30836;48.906;9.140;2023-06-14T04:58:18;982.38;;;22.05;35.19
45071;BME280;30836;48.906;9.140;2023-06-14T04:59:19;982.42;;;22.10;35.17
45071;BME280;30836;48.906;9.140;2023-06-14T05:00:20;982.44;;;22.13;35.24
45071;BME280;30836;48.906;9.140;2023-06-14T05:01:21;982.42;;;22.13;35.24
45071;BME280;30836;48.906;9.140;2023-06-14T05:02:22;982.38;;;22.11;35.32
45071;BME280;30836;48.906;9.140;2023-06-14T05:03:24;982.42;;;22.10;35.27
45071;BME280;30836;48.906;9.140;2023-06-14T05:04:24;982.46;;;22.13;35.36
45071;BME280;30836;48.906;9.140;2023-06-14T05:05:25;982.44;;;22.15;35.45
45071;BME280;30836;48.906;9.140;2023-06-14T05:06:26;982.46;;;22.17;35.52
45071;BME280;30836;48.906;9.140;2023-06-14T05:07:26;982.42;;;22.18;35.47
45071;BME280;30836;48.906;9.140;2023-06-14T05:08:27;982.44;;;22.18;35.52
45071;BME280;30836;48.906;9.140;2023-06-14T05:09:27;982.46;;;22.15;35.52
45071;BME280;30836;48.906;9.140;2023-06-14T05:10:27;982.46;;;22.13;35.43
45071;BME280;30836;48.906;9.140;2023-06-14T05:11:28;982.48;;;22.15;35.32
45071;BME280;30836;48.906;9.140;2023-06-14T05:12:28;982.50;;;22.17;35.26
45071;BME280;30836;48.906;9.140;2023-06-14T05:13:29;982.46;;;22.20;35.26
45071;BME280;30836;48.906;9.140;2023-06-14T05:14:29;982.48;;;22.26;35.08
45071;BME280;30836;48.906;9.140;2023-06-14T05:15:30;982.44;;;22.32;34.92
45071;BME280;30836;48.906;9.140;2023-06-14T05:16:30;982.46;;;22.37;34.91
45071;BME280;30836;48.906;9.140;2023-06-14T05:17:30;982.44;;;22.42;34.91
45071;BME280;30836;48.906;9.140;2023-06-14T05:18:31;982.46;;;22.47;34.90
45071;BME280;30836;48.906;9.140;2023-06-14T05:19:31;982.46;;;22.51;34.99
45071;BME280;30836;48.906;9.140;2023-06-14T05:20:32;982.46;;;22.54;35.08
45071;BME280;30836;48.906;9.140;2023-06-14T05:21:32;982.46;;;22.59;34.88
45071;BME280;30836;48.906;9.140;2023-06-14T05:22:33;982.46;;;22.63;34.73
45071;BME280;30836;48.906;9.140;2023-06-14T05:23:34;982.50;;;22.66;34.67
45071;BME280;30836;48.906;9.140;2023-06-14T05:24:34;982.48;;;22.67;34.60
45071;BME280;30836;48.906;9.140;2023-06-14T05:25:34;982.48;;;22.67;34.54
45071;BME280;30836;48.906;9.140;2023-06-14T05:26:35;982.50;;;22.69;34.46
45071;BME280;30836;48.906;9.140;2023-06-14T05:27:35;982.50;;;22.77;34.41
45071;BME280;30836;48.906;9.140;2023-06-14T05:28:36;982.53;;;22.84;34.40
45071;BME280;30836;48.906;9.140;2023-06-14T05:29:37;982.55;;;22.93;34.32
45071;BME280;30836;48.906;9.140;2023-06-14T05:30:37;982.57;;;23.02;34.04
45071;BME280;30836;48.906;9.140;2023-06-14T05:31:39;982.59;;;23.11;33.62
45071;BME280;30836;48.906;9.140;2023-06-14T05:32:39;982.61;;;23.19;33.65